sensor_id;sensor_type;location;lat;lon;timestamp;temperature;humidity
52979;DHT22;51106;53.186;6.598;2022-08-26T00:01:06;21.20;99.90
52979;DHT22;51106;53.186;6.598;2022-08-26T00:03:08;21.20;99.90
52979;DHT22;51106;53.186;6.598;2022-08-26T00:05:10;21.20;99.90
52979;DHT22;51106;53.186;6.598;2022-08-26T00:07:12;21.20;99.90
52979;DHT22;51106;53.186;6.598;2022-08-26T00:09:15;21.20;99.90
52979;DHT22;51106;53.186;6.598;2022-08-26T00:11:17;21.20;99.90
52979;DHT22;51106;53.186;6.598;2022-08-26T00:13:28;21.10;99.90
52979;DHT22;51106;53.186;6.598;2022-08-26T00:15:30;21.10;99.90
52979;DHT22;51106;53.186;6.598;2022-08-26T00:17:32;21.20;99.90
52979;DHT22;51106;53.186;6.598;2022-08-26T00:19:34;21.10;99.90
52979;DHT22;51106;53.186;6.598;2022-08-26T00:21:35;21.10;99.90
52979;DHT22;51106;53.186;6.598;2022-08-26T00:23:39;21.10;99.90
52979;DHT22;51106;53.186;6.598;2022-08-26T00:25:41;21.00;99.90
52979;DHT22;51106;53.186;6.598;2022-08-26T00:27:43;21.00;99.90
52979;DHT22;51106;53.186;6.598;2022-08-26T00:29:46;20.90;99.90
52979;DHT22;51106;53.186;6.598;2022-08-26T00:31:48;20.90;99.90
52979;DHT22;51106;53.186;6.598;2022-08-26T00:33:50;20.90;99.90
52979;DHT22;51106;53.186;6.598;2022-08-26T00:35:54;20.90;99.90
52979;DHT22;51106;53.186;6.598;2022-08-26T00:37:57;20.80;99.90
52979;DHT22;51106;53.186;6.598;2022-08-26T00:39:59;20.80;99.90
52979;DHT22;51106;53.186;6.598;2022-08-26T00:42:06;20.80;99.90
52979;DHT22;51106;53.186;6.598;2022-08-26T00:44:09;20.90;99.90
52979;DHT22;51106;53.186;6.598;2022-08-26T00:46:17;20.80;99.90
52979;DHT22;51106;53.186;6.598;2022-08-26T00:48:21;20.90;99.90
52979;DHT22;51106;53.186;6.598;2022-08-26T00:50:29;20.90;99.90
52979;DHT22;51106;53.186;6.598;2022-08-26T00:52:34;20.80;99.90
52979;DHT22;51106;53.186;6.598;2022-08-26T00:54:52;20.80;99.90
52979;DHT22;51106;53.186;6.598;2022-08-26T00:57:02;20.80;99.90
52979;DHT22;51106;53.186;6.598;2022-08-26T00:59:12;20.80;99.90
52979;DHT22;51106;53.186;6.598;2022-08-26T01:01:18;20.80;99.90
52979;DHT22;51106;53.186;6.598;2022-08-26T01:03:25;20.80;99.90
52979;DHT22;51106;53.186;6.598;2022-08-26T01:05:29;20.80;99.90
52979;DHT22;51106;53.186;6.598;2022-08-26T01:07:32;20.80;99.90
52979;DHT22;51106;53.186;6.598;2022-08-26T01:09:35;20.80;99.90
52979;DHT22;51106;53.186;6.598;2022-08-26T01:11:38;20.80;99.90
52979;DHT22;51106;53.186;6.598;2022-08-26T01:13:41;20.80;99.90
52979;DHT22;51106;53.186;6.598;2022-08-26T01:15:46;20.90;99.90
52979;DHT22;51106;53.186;6.598;2022-08-26T01:17:49;20.80;99.90
52979;DHT22;51106;53.186;6.598;2022-08-26T01:20:00;20.70;99.90
52979;DHT22;51106;53.186;6.598;2022-08-26T01:22:30;20.80;99.90
52979;DHT22;51106;53.186;6.598;2022-08-26T01:24:34;20.70;99.90
52979;DHT22;51106;53.186;6.598;2022-08-26T01:26:39;20.70;99.90
52979;DHT22;51106;53.186;6.598;2022-08-26T01:28:42;20.70;99.90
52979;DHT22;51106;53.186;6.598;2022-08-26T01:30:52;20.70;99.90
52979;DHT22;51106;53.186;6.598;2022-08-26T01:32:58;20.70;99.90
52979;DHT22;51106;53.186;6.598;2022-08-26T01:35:02;20.70;99.90
52979;DHT22;51106;53.186;6.598;2022-08-26T01:37:11;20.60;99.90
52979;DHT22;51106;53.186;6.598;2022-08-26T01:39:17;20.60;99.90
52979;DHT22;51106;53.186;6.598;2022-08-26T01:41:20;20.60;99.90
52979;DHT22;51106;53.186;6.598;2022-08-26T01:43:31;20.60;99.90
52979;DHT22;51106;53.186;6.598;2022-08-26T01:45:35;20.60;99.90
52979;DHT22;51106;53.186;6.598;2022-08-26T01:47:40;20.60;99.90
52979;DHT22;51106;53.186;6.598;2022-08-26T01:49:44;20.60;99.90
52979;DHT22;51106;53.186;6.598;2022-08-26T01:51:53;20.50;99.90
52979;DHT22;51106;53.186;6.598;2022-08-26T01:53:56;20.60;99.90
52979;DHT22;51106;53.186;6.598;2022-08-26T01:56:01;20.60;99.90
52979;DHT22;51106;53.186;6.598;2022-08-26T01:58:17;20.60;99.90
52979;DHT22;51106;53.186;6.598;2022-08-26T02:00:23;20.60;99.90
52979;DHT22;51106;53.186;6.598;2022-08-26T02:02:28;20.60;99.90
52979;DHT22;51106;53.186;6.598;2022-08-26T02:04:33;20.50;99.90
52979;DHT22;51106;53.186;6.598;2022-08-26T02:06:37;20.50;99.90
52979;DHT22;51106;53.186;6.598;2022-08-26T02:08:43;20.50;99.90
52979;DHT22;51106;53.186;6.598;2022-08-26T02:10:46;20.50;99.90
52979;DHT22;51106;53.186;6.598;2022-08-26T02:12:48;20.50;99.90
52979;DHT22;51106;53.186;6.598;2022-08-26T02:14:54;20.50;99.90
52979;DHT22;51106;53.186;6.598;2022-08-26T02:16:57;20.50;99.90
52979;DHT22;51106;53.186;6.598;2022-08-26T02:19:00;20.50;99.90
52979;DHT22;51106;53.186;6.598;2022-08-26T02:21:04;20.50;99.90
52979;DHT22;51106;53.186;6.598;2022-08-26T02:23:09;20.50;99.90
52979;DHT22;51106;53.186;6.598;2022-08-26T02:25:22;20.50;99.90
52979;DHT22;51106;53.186;6.598;2022-08-26T02:27:30;20.50;99.90
52979;DHT22;51106;53.186;6.598;2022-08-26T02:29:36;20.50;99.90
52979;DHT22;51106;53.186;6.598;2022-08-26T02:31:41;20.50;99.90
52979;DHT22;51106;53.186;6.598;2022-08-26T02:33:43;20.50;99.90
52979;DHT22;51106;53.186;6.598;2022-08-26T02:35:45;20.50;99.90
52979;DHT22;51106;53.186;6.598;2022-08-26T02:37:48;20.50;99.90
52979;DHT22;51106;53.186;6.598;2022-08-26T02:39:51;20.50;99.90
52979;DHT22;51106;53.186;6.598;2022-08-26T02:41:53;20.50;99.90
52979;DHT22;51106;53.186;6.598;2022-08-26T02:43:55;20.40;99.90
52979;DHT22;51106;53.186;6.598;2022-08-26T02:45:58;20.40;99.90
52979;DHT22;51106;53.186;6.598;2022-08-26T02:48:19;20.40;99.90
52979;DHT22;51106;53.186;6.598;2022-08-26T02:50:22;20.40;99.90
52979;DHT22;51106;53.186;6.598;2022-08-26T02:52:26;20.40;99.90
52979;DHT22;51106;53.186;6.598;2022-08-26T02:54:28;20.40;99.90
52979;DHT22;51106;53.186;6.598;2022-08-26T02:56:32;20.40;99.90
52979;DHT22;51106;53.186;6.598;2022-08-26T02:58:36;20.40;99.90
52979;DHT22;51106;53.186;6.598;2022-08-26T03:00:38;20.40;99.90
52979;DHT22;51106;53.186;6.598;2022-08-26T03:02:54;20.40;99.90
52979;DHT22;51106;53.186;6.598;2022-08-26T03:04:56;20.50;99.90
52979;DHT22;51106;53.186;6.598;2022-08-26T03:07:03;20.40;99.90
52979;DHT22;51106;53.186;6.598;2022-08-26T03:09:07;20.40;99.90
52979;DHT22;51106;53.186;6.598;2022-08-26T03:11:09;20.40;99.90
52979;DHT22;51106;53.186;6.598;2022-08-26T03:13:12;20.50;99.90
52979;DHT22;51106;53.186;6.598;2022-08-26T03:15:17;20.40;99.90
52979;DHT22;51106;53.186;6.598;2022-08-26T03:17:19;20.40;99.90
52979;DHT22;51106;53.186;6.598;2022-08-26T03:19:23;20.40;99.90
52979;DHT22;51106;53.186;6.598;2022-08-26T03:21:25;20.50;99.90
52979;DHT22;51106;53.186;6.598;2022-08-26T03:23:27;20.40;99.90
52979;DHT22;51106;53.186;6.598;2022-08-26T03:25:29;20.40;99.90
52979;DHT22;51106;53.186;6.598;2022-08-26T03:27:32;20.50;99.90
52979;DHT22;51106;53.186;6.598;2022-08-26T03:29:34;20.50;99.90
52979;DHT22;51106;53.186;6.598;2022-08-26T03:31:56;20.50;99.90
52979;DHT22;51106;53.186;6.598;2022-08-26T03:33:59;20.50;99.90
52979;DHT22;51106;53.186;6.598;2022-08-26T03:36:01;20.50;99.90
52979;DHT22;51106;53.186;6.598;2022-08-26T03:38:05;20.40;99.90
52979;DHT22;51106;53.186;6.598;2022-08-26T03:40:10;20.50;99.90
52979;DHT22;51106;53.186;6.598;2022-08-26T03:42:13;20.50;99.90
52979;DHT22;51106;53.186;6.598;2022-08-26T03:44:16;20.50;99.90
52979;DHT22;51106;53.186;6.598;2022-08-26T03:46:18;20.50;99.90
52979;DHT22;51106;53.186;6.598;2022-08-26T03:48:21;20.60;99.90
52979;DHT22;51106;53.186;6.598;2022-08-26T03:50:24;20.40;99.90
52979;DHT22;51106;53.186;6.598;2022-08-26T03:52:27;20.40;99.90
52979;DHT22;51106;53.186;6.598;2022-08-26T03:54:30;20.40;99.90
52979;DHT22;51106;53.186;6.598;2022-08-26T03:56:33;20.50;99.90
52979;DHT22;51106;53.186;6.598;2022-08-26T03:58:36;20.40;99.90
52979;DHT22;51106;53.186;6.598;2022-08-26T04:00:39;20.40;99.90
52979;DHT22;51106;53.186;6.598;2022-08-26T04:02:43;20.40;99.90
52979;DHT22;51106;53.186;6.598;2022-08-26T04:04:46;20.40;99.90
52979;DHT22;51106;53.186;6.598;2022-08-26T04:06:48;20.40;99.90
52979;DHT22;51106;53.186;6.598;2022-08-26T04:08:50;20.40;99.90
52979;DHT22;51106;53.186;6.598;2022-08-26T04:10:54;20.40;99.90
52979;DHT22;51106;53.186;6.598;2022-08-26T04:12:57;20.40;99.90
52979;DHT22;51106;53.186;6.598;2022-08-26T04:14:59;20.30;99.90
52979;DHT22;51106;53.186;6.598;2022-08-26T04:17:03;20.40;99.90
52979;DHT22;51106;53.186;6.598;2022-08-26T04:19:08;20.30;99.90
52979;DHT22;51106;53.186;6.598;2022-08-26T04:21:11;20.40;99.90
52979;DHT22;51106;53.186;6.598;2022-08-26T04:23:16;20.30;99.90
52979;DHT22;51106;53.186;6.598;2022-08-26T04:25:18;20.30;99.90
52979;DHT22;51106;53.186;6.598;2022-08-26T04:27:21;20.30;99.90
52979;DHT22;51106;53.186;6.598;2022-08-26T04:29:25;20.30;99.90
52979;DHT22;51106;53.186;6.598;2022-08-26T04:31:27;20.30;99.90
52979;DHT22;51106;53.186;6.598;2022-08-26T04:33:31;20.30;99.90
52979;DHT22;51106;53.186;6.598;2022-08-26T04:35:33;20.20;99.90
52979;DHT22;51106;53.186;6.598;2022-08-26T04:37:38;20.30;99.90
52979;DHT22;51106;53.186;6.598;2022-08-26T04:39:43;20.20;99.90
52979;DHT22;51106;53.186;6.598;2022-08-26T04:41:48;20.30;99.90
52979;DHT22;51106;53.186;6.598;2022-08-26T04:43:51;20.30;99.90
52979;DHT22;51106;53.186;6.598;2022-08-26T04:45:53;20.50;99.90
52979;DHT22;51106;53.186;6.598;2022-08-26T04:47:57;20.20;99.90
52979;DHT22;51106;53.186;6.598;2022-08-26T04:49:59;20.20;99.90
52979;DHT22;51106;53.186;6.598;2022-08-26T04:52:03;20.20;99.90
52979;DHT22;51106;53.186;6.598;2022-08-26T04:54:06;20.20;99.90
52979;DHT22;51106;53.186;6.598;2022-08-26T04:56:09;20.20;99.90
52979;DHT22;51106;53.186;6.598;2022-08-26T04:58:16;20.20;99.90
52979;DHT22;51106;53.186;6.598;2022-08-26T05:00:19;20.20;99.90
52979;DHT22;51106;53.186;6.598;2022-08-26T05:02:22;20.10;99.90
52979;DHT22;51106;53.186;6.598;2022-08-26T05:04:25;20.10;99.90
52979;DHT22;51106;53.186;6.598;2022-08-26T05:06:28;20.10;99.90
52979;DHT22;51106;53.186;6.598;2022-08-26T05:08:37;20.10;99.90
52979;DHT22;51106;53.186;6.598;2022-08-26T05:10:44;20.10;99.90
52979;DHT22;51106;53.186;6.598;2022-08-26T05:12:46;20.10;99.90
52979;DHT22;51106;53.186;6.598;2022-08-26T05:14:48;20.10;99.90
52979;DHT22;51106;53.186;6.598;2022-08-26T05:16:51;20.10;99.90
52979;DHT22;51106;53.186;6.598;2022-08-26T05:18:53;20.10;99.90
52979;DHT22;51106;53.186;6.598;2022-08-26T05:21:03;20.10;99.90
52979;DHT22;51106;53.186;6.598;2022-08-26T05:23:06;20.10;99.90
52979;DHT22;51106;53.186;6.598;2022-08-26T05:25:09;20.20;99.90
52979;DHT22;51106;53.186;6.598;2022-08-26T05:27:12;20.10;99.90
52979;DHT22;51106;53.186;6.598;2022-08-26T05:29:15;20.10;99.90
52979;DHT22;51106;53.186;6.598;2022-08-26T05:31:20;20.10;99.90
52979;DHT22;51106;53.186;6.598;2022-08-26T05:33:22;20.10;99.90
52979;DHT22;51106;53.186;6.598;2022-08-26T05:35:27;20.10;99.90
52979;DHT22;51106;53.186;6.598;2022-08-26T05:37:36;20.10;99.90
52979;DHT22;51106;53.186;6.598;2022-08-26T05:39:39;20.10;99.90
52979;DHT22;51106;53.186;6.598;2022-08-26T05:41:44;20.10;99.90
52979;DHT22;51106;53.186;6.598;2022-08-26T05:43:47;20.20;99.90
52979;DHT22;51106;53.186;6.598;2022-08-26T05:45:49;20.20;99.90
52979;DHT22;51106;53.186;6.598;2022-08-26T05:47:52;20.20;99.90
52979;DHT22;51106;53.186;6.598;2022-08-26T05:49:54;20.20;99.90
52979;DHT22;51106;53.186;6.598;2022-08-26T05:51:56;20.20;99.90
52979;DHT22;51106;53.186;6.598;2022-08-26T05:54:01;20.20;99.90
52979;DHT22;51106;53.186;6.598;2022-08-26T05:56:05;20.20;99.90
52979;DHT22;51106;53.186;6.598;2022-08-26T05:58:07;20.20;99.90
52979;DHT22;51106;53.186;6.598;2022-08-26T06:00:10;20.20;99.90
52979;DHT22;51106;53.186;6.598;2022-08-26T06:02:13;20.20;99.90
52979;DHT22;51106;53.186;6.598;2022-08-26T06:04:15;20.30;99.90
52979;DHT22;51106;53.186;6.598;2022-08-26T06:06:28;20.30;99.90
52979;DHT22;51106;53.186;6.598;2022-08-26T06:08:32;20.30;99.90
52979;DHT22;51106;53.186;6.598;2022-08-26T06:10:34;20.30;99.90
52979;DHT22;51106;53.186;6.598;2022-08-26T06:12:38;20.30;99.90
52979;DHT22;51106;53.186;6.598;2022-08-26T06:14:40;20.30;99.90
52979;DHT22;51106;53.186;6.598;2022-08-26T06:16:43;20.40;99.90
52979;DHT22;51106;53.186;6.598;2022-08-26T06:18:46;20.40;99.90
52979;DHT22;51106;53.186;6.598;2022-08-26T06:20:49;20.40;99.90
52979;DHT22;51106;53.186;6.598;2022-08-26T06:22:58;20.40;99.90
52979;DHT22;51106;53.186;6.598;2022-08-26T06:25:19;20.50;99.90
52979;DHT22;51106;53.186;6.598;2022-08-26T06:27:39;20.50;99.90
52979;DHT22;51106;53.186;6.598;2022-08-26T06:29:41;20.40;99.90
52979;DHT22;51106;53.186;6.598;2022-08-26T06:31:44;20.50;99.90
52979;DHT22;51106;53.186;6.598;2022-08-26T06:33:46;20.50;99.90
52979;DHT22;51106;53.186;6.598;2022-08-26T06:35:49;20.50;99.90
52979;DHT22;51106;53.186;6.598;2022-08-26T06:37:51;20.50;99.90
52979;DHT22;51106;53.186;6.598;2022-08-26T06:39:53;20.60;99.90
52979;DHT22;51106;53.186;6.598;2022-08-26T06:41:55;20.60;99.90
52979;DHT22;51106;53.186;6.598;2022-08-26T06:43:57;20.60;99.90
52979;DHT22;51106;53.186;6.598;2022-08-26T06:46:04;20.70;99.90
52979;DHT22;51106;53.186;6.598;2022-08-26T06:48:08;20.70;99.90
52979;DHT22;51106;53.186;6.598;2022-08-26T06:50:10;20.70;99.90
52979;DHT22;51106;53.186;6.598;2022-08-26T06:52:12;20.80;99.90
52979;DHT22;51106;53.186;6.598;2022-08-26T06:54:20;20.70;99.90
52979;DHT22;51106;53.186;6.598;2022-08-26T06:56:24;20.80;99.90
52979;DHT22;51106;53.186;6.598;2022-08-26T06:58:27;20.70;99.90
52979;DHT22;51106;53.186;6.598;2022-08-26T07:00:29;20.80;99.90
52979;DHT22;51106;53.186;6.598;2022-08-26T07:02:33;20.70;99.90
52979;DHT22;51106;53.186;6.598;2022-08-26T07:04:36;20.70;99.90
52979;DHT22;51106;53.186;6.598;2022-08-26T07:06:39;20.70;99.90
52979;DHT22;51106;53.186;6.598;2022-08-26T07:08:45;20.60;99.90
52979;DHT22;51106;53.186;6.598;2022-08-26T07:10:48;20.60;99.90
52979;DHT22;51106;53.186;6.598;2022-08-26T07:12:54;20.60;99.90
52979;DHT22;51106;53.186;6.598;2022-08-26T07:14:56;20.60;99.90
52979;DHT22;51106;53.186;6.598;2022-08-26T07:16:58;20.60;99.90
52979;DHT22;51106;53.186;6.598;2022-08-26T07:19:03;20.60;99.90
52979;DHT22;51106;53.186;6.598;2022-08-26T07:21:14;20.60;99.90
52979;DHT22;51106;53.186;6.598;2022-08-26T07:23:19;20.60;99.90
52979;DHT22;51106;53.186;6.598;2022-08-26T07:25:23;20.60;99.90
52979;DHT22;51106;53.186;6.598;2022-08-26T07:27:25;20.60;99.90
52979;DHT22;51106;53.186;6.598;2022-08-26T07:29:29;20.60;99.90
52979;DHT22;51106;53.186;6.598;2022-08-26T07:31:32;20.70;99.90
52979;DHT22;51106;53.186;6.598;2022-08-26T07:33:43;20.70;99.90
52979;DHT22;51106;53.186;6.598;2022-08-26T07:35:45;20.70;99.90
52979;DHT22;51106;53.186;6.598;2022-08-26T07:37:47;20.70;99.90
52979;DHT22;51106;53.186;6.598;2022-08-26T07:39:54;20.70;99.90
52979;DHT22;51106;53.186;6.598;2022-08-26T07:41:56;20.70;99.90
52979;DHT22;51106;53.186;6.598;2022-08-26T07:43:58;20.70;99.90
52979;DHT22;51106;53.186;6.598;2022-08-26T07:46:02;20.80;99.90
52979;DHT22;51106;53.186;6.598;2022-08-26T07:48:05;20.70;99.90
52979;DHT22;51106;53.186;6.598;2022-08-26T07:50:07;20.80;99.90
52979;DHT22;51106;53.186;6.598;2022-08-26T07:52:10;20.80;99.90
52979;DHT22;51106;53.186;6.598;2022-08-26T07:54:12;20.80;99.90
52979;DHT22;51106;53.186;6.598;2022-08-26T07:56:14;20.80;99.90
52979;DHT22;51106;53.186;6.598;2022-08-26T07:58:16;20.80;99.90
52979;DHT22;51106;53.186;6.598;2022-08-26T08:00:19;20.70;99.90
52979;DHT22;51106;53.186;6.598;2022-08-26T08:02:23;20.80;99.90
52979;DHT22;51106;53.186;6.598;2022-08-26T08:04:26;20.80;99.90
52979;DHT22;51106;53.186;6.598;2022-08-26T08:06:30;20.80;99.90
52979;DHT22;51106;53.186;6.598;2022-08-26T08:08:35;20.80;99.90
52979;DHT22;51106;53.186;6.598;2022-08-26T08:10:37;20.80;99.90
52979;DHT22;51106;53.186;6.598;2022-08-26T08:12:40;20.80;99.90
52979;DHT22;51106;53.186;6.598;2022-08-26T08:14:43;20.90;99.90
52979;DHT22;51106;53.186;6.598;2022-08-26T08:16:49;20.80;99.90
52979;DHT22;51106;53.186;6.598;2022-08-26T08:18:55;20.90;99.90
52979;DHT22;51106;53.186;6.598;2022-08-26T08:20:59;20.90;99.90
52979;DHT22;51106;53.186;6.598;2022-08-26T08:23:24;20.80;99.90
52979;DHT22;51106;53.186;6.598;2022-08-26T08:25:27;20.80;99.90
52979;DHT22;51106;53.186;6.598;2022-08-26T08:27:32;20.80;99.90
52979;DHT22;51106;53.186;6.598;2022-08-26T08:29:36;20.80;99.90
52979;DHT22;51106;53.186;6.598;2022-08-26T08:31:38;20.80;99.90
52979;DHT22;51106;53.186;6.598;2022-08-26T08:33:58;20.80;99.90
52979;DHT22;51106;53.186;6.598;2022-08-26T08:36:01;20.80;99.90
52979;DHT22;51106;53.186;6.598;2022-08-26T08:38:09;20.90;99.90
52979;DHT22;51106;53.186;6.598;2022-08-26T08:40:14;20.90;99.90
52979;DHT22;51106;53.186;6.598;2022-08-26T08:44:48;21.00;99.90
52979;DHT22;51106;53.186;6.598;2022-08-26T08:46:58;21.00;99.90
52979;DHT22;51106;53.186;6.598;2022-08-26T08:49:02;21.00;99.90
52979;DHT22;51106;53.186;6.598;2022-08-26T08:53:33;21.10;99.90
52979;DHT22;51106;53.186;6.598;2022-08-26T08:58:32;21.00;99.90
52979;DHT22;51106;53.186;6.598;2022-08-26T09:00:43;21.00;99.90
52979;DHT22;51106;53.186;6.598;2022-08-26T09:03:00;21.00;99.90
52979;DHT22;51106;53.186;6.598;2022-08-26T09:07:38;21.00;99.90
52979;DHT22;51106;53.186;6.598;2022-08-26T09:09:44;21.00;99.90
52979;DHT22;51106;53.186;6.598;2022-08-26T09:11:47;20.90;99.90
52979;DHT22;51106;53.186;6.598;2022-08-26T09:13:52;20.80;99.90
52979;DHT22;51106;53.186;6.598;2022-08-26T09:20:34;20.80;99.90
52979;DHT22;51106;53.186;6.598;2022-08-26T09:22:40;20.70;99.90
52979;DHT22;51106;53.186;6.598;2022-08-26T09:24:45;20.70;99.90
52979;DHT22;51106;53.186;6.598;2022-08-26T09:26:49;20.60;99.90
52979;DHT22;51106;53.186;6.598;2022-08-26T09:29:02;20.60;99.90
52979;DHT22;51106;53.186;6.598;2022-08-26T09:31:22;20.50;99.90
52979;DHT22;51106;53.186;6.598;2022-08-26T09:33:29;20.50;99.90
52979;DHT22;51106;53.186;6.598;2022-08-26T09:35:34;20.40;99.90
52979;DHT22;51106;53.186;6.598;2022-08-26T09:37:39;20.40;99.90
52979;DHT22;51106;53.186;6.598;2022-08-26T09:39:42;20.40;99.90
52979;DHT22;51106;53.186;6.598;2022-08-26T09:42:10;20.50;99.90
52979;DHT22;51106;53.186;6.598;2022-08-26T09:44:17;20.50;99.90
52979;DHT22;51106;53.186;6.598;2022-08-26T09:46:24;20.50;99.90
52979;DHT22;51106;53.186;6.598;2022-08-26T09:48:36;20.50;99.90
52979;DHT22;51106;53.186;6.598;2022-08-26T09:51:01;20.50;99.90
52979;DHT22;51106;53.186;6.598;2022-08-26T09:55:20;20.70;99.90
52979;DHT22;51106;53.186;6.598;2022-08-26T09:57:29;20.70;99.90
52979;DHT22;51106;53.186;6.598;2022-08-26T09:59:31;20.80;99.90
52979;DHT22;51106;53.186;6.598;2022-08-26T10:01:39;20.70;99.90
52979;DHT22;51106;53.186;6.598;2022-08-26T10:03:45;20.80;99.90
52979;DHT22;51106;53.186;6.598;2022-08-26T10:06:01;20.80;99.90
52979;DHT22;51106;53.186;6.598;2022-08-26T10:08:19;20.80;99.90
52979;DHT22;51106;53.186;6.598;2022-08-26T10:10:33;20.80;99.90
52979;DHT22;51106;53.186;6.598;2022-08-26T10:12:48;20.80;99.90
52979;DHT22;51106;53.186;6.598;2022-08-26T10:14:55;20.80;99.90
52979;DHT22;51106;53.186;6.598;2022-08-26T10:17:06;20.80;99.90
52979;DHT22;51106;53.186;6.598;2022-08-26T10:19:12;20.90;99.90
52979;DHT22;51106;53.186;6.598;2022-08-26T10:21:23;20.90;99.90
52979;DHT22;51106;53.186;6.598;2022-08-26T10:23:29;20.80;99.90
52979;DHT22;51106;53.186;6.598;2022-08-26T10:25:43;20.80;99.90
52979;DHT22;51106;53.186;6.598;2022-08-26T10:30:12;20.70;99.90
52979;DHT22;51106;53.186;6.598;2022-08-26T10:32:36;20.70;99.90
52979;DHT22;51106;53.186;6.598;2022-08-26T10:34:42;20.70;99.90
52979;DHT22;51106;53.186;6.598;2022-08-26T10:37:00;20.70;99.90
52979;DHT22;51106;53.186;6.598;2022-08-26T10:39:30;20.70;99.90
52979;DHT22;51106;53.186;6.598;2022-08-26T10:41:38;20.70;99.90
52979;DHT22;51106;53.186;6.598;2022-08-26T10:43:46;20.70;99.90
52979;DHT22;51106;53.186;6.598;2022-08-26T10:45:53;20.70;99.90
52979;DHT22;51106;53.186;6.598;2022-08-26T10:50:01;20.70;99.90
52979;DHT22;51106;53.186;6.598;2022-08-26T10:59:25;20.60;99.90
52979;DHT22;51106;53.186;6.598;2022-08-26T11:04:29;20.80;99.90
52979;DHT22;51106;53.186;6.598;2022-08-26T11:06:38;20.90;99.90
52979;DHT22;51106;53.186;6.598;2022-08-26T11:09:04;20.80;99.90
52979;DHT22;51106;53.186;6.598;2022-08-26T11:11:07;20.80;99.90
52979;DHT22;51106;53.186;6.598;2022-08-26T11:13:09;20.80;99.90
52979;DHT22;51106;53.186;6.598;2022-08-26T11:22:06;20.80;99.90
52979;DHT22;51106;53.186;6.598;2022-08-26T11:24:45;20.80;99.90
52979;DHT22;51106;53.186;6.598;2022-08-26T11:27:01;20.80;99.90
52979;DHT22;51106;53.186;6.598;2022-08-26T11:29:04;20.80;99.90
52979;DHT22;51106;53.186;6.598;2022-08-26T11:33:45;20.80;99.90
52979;DHT22;51106;53.186;6.598;2022-08-26T11:35:49;20.80;99.90
52979;DHT22;51106;53.186;6.598;2022-08-26T11:37:56;20.80;99.90
52979;DHT22;51106;53.186;6.598;2022-08-26T11:40:00;20.80;99.90
52979;DHT22;51106;53.186;6.598;2022-08-26T11:42:29;20.80;99.90
52979;DHT22;51106;53.186;6.598;2022-08-26T11:44:38;20.80;99.90
52979;DHT22;51106;53.186;6.598;2022-08-26T11:47:00;20.80;99.90
52979;DHT22;51106;53.186;6.598;2022-08-26T11:49:05;20.80;99.90
52979;DHT22;51106;53.186;6.598;2022-08-26T11:51:22;21.00;99.90
52979;DHT22;51106;53.186;6.598;2022-08-26T11:53:25;20.70;99.90
52979;DHT22;51106;53.186;6.598;2022-08-26T11:55:33;20.80;99.90
52979;DHT22;51106;53.186;6.598;2022-08-26T11:57:46;20.80;99.90
52979;DHT22;51106;53.186;6.598;2022-08-26T11:59:51;20.70;99.90
52979;DHT22;51106;53.186;6.598;2022-08-26T12:01:53;20.80;99.90
52979;DHT22;51106;53.186;6.598;2022-08-26T12:03:57;20.70;99.90
52979;DHT22;51106;53.186;6.598;2022-08-26T12:06:02;20.70;99.90
52979;DHT22;51106;53.186;6.598;2022-08-26T12:08:08;20.60;99.90
52979;DHT22;51106;53.186;6.598;2022-08-26T12:10:28;20.60;99.90
52979;DHT22;51106;53.186;6.598;2022-08-26T12:12:35;20.50;99.90
52979;DHT22;51106;53.186;6.598;2022-08-26T12:14:41;20.40;99.90
52979;DHT22;51106;53.186;6.598;2022-08-26T12:16:44;20.30;99.90
52979;DHT22;51106;53.186;6.598;2022-08-26T12:18:46;20.30;99.90
52979;DHT22;51106;53.186;6.598;2022-08-26T12:20:50;20.30;99.90
52979;DHT22;51106;53.186;6.598;2022-08-26T12:22:56;20.20;99.90
52979;DHT22;51106;53.186;6.598;2022-08-26T12:25:04;20.20;99.90
52979;DHT22;51106;53.186;6.598;2022-08-26T12:27:30;20.20;99.90
52979;DHT22;51106;53.186;6.598;2022-08-26T12:29:34;20.10;99.90
52979;DHT22;51106;53.186;6.598;2022-08-26T12:31:42;20.00;99.90
52979;DHT22;51106;53.186;6.598;2022-08-26T12:33:44;20.00;99.90
52979;DHT22;51106;53.186;6.598;2022-08-26T12:35:46;19.90;99.90
52979;DHT22;51106;53.186;6.598;2022-08-26T12:37:53;19.90;99.90
52979;DHT22;51106;53.186;6.598;2022-08-26T12:42:53;19.80;99.90
52979;DHT22;51106;53.186;6.598;2022-08-26T12:45:01;19.70;99.90
52979;DHT22;51106;53.186;6.598;2022-08-26T12:47:21;19.70;99.90
52979;DHT22;51106;53.186;6.598;2022-08-26T12:49:44;19.70;99.90
52979;DHT22;51106;53.186;6.598;2022-08-26T12:51:48;19.70;99.90
52979;DHT22;51106;53.186;6.598;2022-08-26T12:53:51;19.60;99.90
52979;DHT22;51106;53.186;6.598;2022-08-26T12:56:02;19.70;99.90
52979;DHT22;51106;53.186;6.598;2022-08-26T13:00:37;19.80;99.90
52979;DHT22;51106;53.186;6.598;2022-08-26T13:02:41;19.80;99.90
52979;DHT22;51106;53.186;6.598;2022-08-26T13:04:43;19.90;99.90
52979;DHT22;51106;53.186;6.598;2022-08-26T13:06:46;19.90;99.90
52979;DHT22;51106;53.186;6.598;2022-08-26T13:08:53;19.90;99.90
52979;DHT22;51106;53.186;6.598;2022-08-26T13:11:15;20.00;99.90
52979;DHT22;51106;53.186;6.598;2022-08-26T13:13:20;20.20;99.90
52979;DHT22;51106;53.186;6.598;2022-08-26T13:15:22;20.20;99.90
52979;DHT22;51106;53.186;6.598;2022-08-26T13:17:26;20.20;99.90
52979;DHT22;51106;53.186;6.598;2022-08-26T13:19:28;20.20;99.90
52979;DHT22;51106;53.186;6.598;2022-08-26T13:21:35;20.10;99.90
52979;DHT22;51106;53.186;6.598;2022-08-26T13:23:38;20.00;99.90
52979;DHT22;51106;53.186;6.598;2022-08-26T13:25:43;20.00;99.90
52979;DHT22;51106;53.186;6.598;2022-08-26T13:27:45;19.90;99.90
52979;DHT22;51106;53.186;6.598;2022-08-26T13:29:48;19.90;99.90
52979;DHT22;51106;53.186;6.598;2022-08-26T13:31:50;19.90;99.90
52979;DHT22;51106;53.186;6.598;2022-08-26T13:33:52;19.90;99.90
52979;DHT22;51106;53.186;6.598;2022-08-26T13:35:54;19.90;99.90
52979;DHT22;51106;53.186;6.598;2022-08-26T13:37:56;19.90;99.90
52979;DHT22;51106;53.186;6.598;2022-08-26T13:39:58;19.90;99.90
52979;DHT22;51106;53.186;6.598;2022-08-26T13:42:00;20.00;99.90
52979;DHT22;51106;53.186;6.598;2022-08-26T13:44:03;20.00;99.90
52979;DHT22;51106;53.186;6.598;2022-08-26T13:46:05;20.10;99.90
52979;DHT22;51106;53.186;6.598;2022-08-26T13:48:07;20.20;99.90
52979;DHT22;51106;53.186;6.598;2022-08-26T13:50:10;20.30;99.90
52979;DHT22;51106;53.186;6.598;2022-08-26T13:52:12;20.40;99.90
52979;DHT22;51106;53.186;6.598;2022-08-26T13:54:14;20.40;99.90
52979;DHT22;51106;53.186;6.598;2022-08-26T13:56:17;20.40;99.90
52979;DHT22;51106;53.186;6.598;2022-08-26T13:58:19;20.30;99.90
52979;DHT22;51106;53.186;6.598;2022-08-26T14:00:21;20.30;99.90